Time;durP1;ratioP1;P1;durP2;ratioP2;P2;SDS_P1;SDS_P2;PMS_P1;PMS_P2;Temp;Humidity;BMP_temperature;BMP_pressure;BME280_temperature;BME280_humidity;BME280_pressure;Samples;Min_cycle;Max_cycle;Signal;HPM_P1;HPM_P2
2023/09/26 00:00:22;;;;;;;3.77;3.47;;;19.80;90.50;;;;;;4975917;28;20434;-72
2023/09/26 00:02:52;;;;;;;6.03;3.10;;;19.80;90.50;;;;;;4976595;28;21241;-72
2023/09/26 00:05:20;;;;;;;7.17;3.63;;;19.80;90.50;;;;;;4978726;28;20442;-72
2023/09/26 00:07:48;;;;;;;4.53;3.20;;;19.70;90.80;;;;;;4944593;28;20987;-72
2023/09/26 00:10:20;;;;;;;3.63;3.07;;;19.70;90.50;;;;;;4973665;28;20445;-72
2023/09/26 00:12:46;;;;;;;3.30;3.00;;;19.70;90.50;;;;;;4981698;28;21011;-72
2023/09/26 00:15:15;;;;;;;4.23;2.93;;;19.70;90.50;;;;;;4950465;28;20437;-72
2023/09/26 00:17:41;;;;;;;3.70;3.40;;;19.70;90.50;;;;;;4974031;28;20449;-72
2023/09/26 00:20:15;;;;;;;3.70;3.10;;;19.80;90.50;;;;;;4963154;28;20473;-72
2023/09/26 00:22:46;;;;;;;3.67;3.07;;;19.70;90.50;;;;;;4948052;28;20461;-72
2023/09/26 00:25:14;;;;;;;3.70;3.40;;;19.70;90.50;;;;;;4962350;28;20441;-72
2023/09/26 00:27:42;;;;;;;3.10;2.90;;;19.70;90.50;;;;;;4974699;28;20561;-72
2023/09/26 00:30:12;;;;;;;3.90;2.80;;;19.60;90.40;;;;;;5073022;23;20498;-68
2023/09/26 00:32:41;;;;;;;3.60;3.20;;;19.60;90.40;;;;;;4952859;28;20571;-67
2023/09/26 00:35:14;;;;;;;6.20;3.43;;;19.60;90.40;;;;;;4924278;29;20448;-67
2023/09/26 00:37:49;;;;;;;3.43;3.00;;;19.60;90.40;;;;;;4939832;29;21050;-67
2023/09/26 00:40:18;;;;;;;4.03;3.17;;;19.60;90.40;;;;;;4924325;28;20428;-67
2023/09/26 00:42:49;;;;;;;3.63;3.20;;;19.60;90.40;;;;;;4959694;28;20843;-68
2023/09/26 00:45:16;;;;;;;3.20;3.00;;;19.60;90.40;;;;;;4947008;28;20929;-68
2023/09/26 00:47:52;;;;;;;3.47;3.17;;;19.60;90.40;;;;;;4962152;28;20893;-68
2023/09/26 00:50:22;;;;;;;4.30;3.03;;;19.60;90.40;;;;;;4947130;28;20439;-67
2023/09/26 00:52:51;;;;;;;3.43;3.23;;;19.60;90.40;;;;;;4962829;28;20441;-67
2023/09/26 00:55:21;;;;;;;4.13;3.13;;;19.50;90.30;;;;;;4965090;28;20436;-68
2023/09/26 00:57:48;;;;;;;3.43;2.90;;;19.50;90.30;;;;;;4980032;28;20501;-67
2023/09/26 01:00:19;;;;;;;5.53;2.73;;;19.50;90.30;;;;;;4947933;28;20539;-67
2023/09/26 01:02:45;;;;;;;4.17;3.40;;;19.50;90.40;;;;;;4960432;28;20452;-67
2023/09/26 01:05:11;;;;;;;5.57;3.03;;;19.50;90.40;;;;;;4944064;29;20426;-68
2023/09/26 01:07:39;;;;;;;6.73;3.27;;;19.50;90.30;;;;;;4928435;29;20940;-68
2023/09/26 01:10:10;;;;;;;3.43;2.90;;;19.50;90.40;;;;;;4912080;29;21065;-68
2023/09/26 01:12:39;;;;;;;3.63;2.83;;;19.50;90.30;;;;;;4943796;28;20502;-68
2023/09/26 01:15:07;;;;;;;4.23;3.00;;;19.50;90.30;;;;;;4944052;28;20416;-67
2023/09/26 01:17:33;;;;;;;5.60;3.60;;;19.50;90.30;;;;;;4927385;29;20423;-67
2023/09/26 01:20:07;;;;;;;6.20;2.80;;;19.40;90.20;;;;;;4927954;29;20432;-68
2023/09/26 01:22:45;;;;;;;4.90;2.80;;;19.40;90.30;;;;;;4942144;28;20447;-68
2023/09/26 01:25:13;;;;;;;3.10;2.80;;;19.40;90.30;;;;;;4942473;29;20431;-68
2023/09/26 01:27:42;;;;;;;3.20;2.90;;;19.40;90.20;;;;;;4943293;29;21296;-67
2023/09/26 01:30:13;;;;;;;3.30;2.73;;;19.40;90.30;;;;;;4943057;28;20917;-67
2023/09/26 01:32:41;;;;;;;3.73;3.07;;;19.40;90.20;;;;;;4927866;29;20464;-67
2023/09/26 01:35:07;;;;;;;4.40;2.97;;;19.30;90.20;;;;;;4942872;29;20422;-67
2023/09/26 01:37:33;;;;;;;3.20;3.00;;;19.40;90.20;;;;;;4954532;28;20794;-68
2023/09/26 01:40:03;;;;;;;3.37;3.07;;;19.40;90.20;;;;;;4963687;28;20423;-68
2023/09/26 01:42:30;;;;;;;3.50;3.20;;;19.30;90.20;;;;;;4946341;28;20985;-67
2023/09/26 01:44:56;;;;;;;3.53;3.23;;;19.40;90.20;;;;;;4952380;28;20433;-68
2023/09/26 01:47:34;;;;;;;2.63;2.43;;;19.30;90.20;;;;;;4923389;29;20486;-67
2023/09/26 01:50:00;;;;;;;4.70;3.10;;;19.30;90.20;;;;;;4923688;29;20676;-68
2023/09/26 01:52:28;;;;;;;2.97;2.77;;;19.30;90.10;;;;;;4939493;28;20464;-68
2023/09/26 01:54:57;;;;;;;3.10;2.83;;;19.00;90.00;;;;;;4938611;28;21181;-67
2023/09/26 01:57:23;;;;;;;3.87;2.83;;;19.30;90.10;;;;;;4923468;29;20425;-67
2023/09/26 01:59:51;;;;;;;2.83;2.60;;;19.30;90.10;;;;;;4923281;29;20859;-68
2023/09/26 02:02:17;;;;;;;3.30;3.00;;;19.30;90.20;;;;;;4938642;28;20445;-68
2023/09/26 02:04:43;;;;;;;3.00;2.80;;;19.20;90.10;;;;;;4939382;28;20416;-67
2023/09/26 02:07:11;;;;;;;2.93;2.70;;;19.20;90.10;;;;;;4939356;28;20480;-68
2023/09/26 02:09:38;;;;;;;3.13;2.87;;;19.20;90.10;;;;;;4923211;29;20264;-67
2023/09/26 02:12:07;;;;;;;3.03;2.73;;;19.20;90.10;;;;;;4939599;28;20497;-68
2023/09/26 02:14:35;;;;;;;2.90;2.70;;;19.20;90.00;;;;;;4939046;28;21008;-67
2023/09/26 02:17:04;;;;;;;3.00;2.70;;;19.20;90.00;;;;;;4938795;28;20452;-67
2023/09/26 02:19:30;;;;;;;3.23;3.03;;;19.20;90.10;;;;;;4891871;29;20544;-68
2023/09/26 02:21:56;;;;;;;3.70;3.40;;;19.20;90.10;;;;;;4924683;29;20522;-68
2023/09/26 02:24:22;;;;;;;3.50;3.20;;;19.20;90.00;;;;;;4924847;29;20427;-68
2023/09/26 02:26:48;;;;;;;2.80;2.60;;;19.20;90.00;;;;;;4940126;28;20802;-67
2023/09/26 02:29:15;;;;;;;4.17;3.00;;;19.10;89.80;;;;;;4940284;28;20577;-67
2023/09/26 02:31:43;;;;;;;4.30;2.93;;;19.10;89.80;;;;;;4940039;28;20514;-68
2023/09/26 02:34:09;;;;;;;5.73;2.83;;;19.10;89.90;;;;;;4956126;28;20513;-67
2023/09/26 02:36:35;;;;;;;3.67;3.10;;;19.10;90.00;;;;;;4962963;28;20567;-68
2023/09/26 02:39:01;;;;;;;2.73;2.50;;;19.10;89.90;;;;;;4963797;28;20811;-68
2023/09/26 02:41:31;;;;;;;3.53;2.80;;;19.10;89.90;;;;;;4962435;28;20521;-68
2023/09/26 02:44:03;;;;;;;3.47;3.23;;;19.10;89.90;;;;;;4962675;28;20446;-68
2023/09/26 02:46:32;;;;;;;2.63;2.43;;;19.00;89.90;;;;;;4946363;28;20863;-67
2023/09/26 02:49:03;;;;;;;3.50;3.20;;;19.10;89.80;;;;;;4962484;28;20439;-67
2023/09/26 02:51:33;;;;;;;3.10;2.80;;;19.10;89.90;;;;;;4962411;28;20576;-67
2023/09/26 02:54:02;;;;;;;3.27;3.00;;;19.10;89.90;;;;;;4946626;28;20461;-67
2023/09/26 02:56:28;;;;;;;3.73;2.93;;;19.10;89.90;;;;;;4946379;28;20442;-67
2023/09/26 02:58:56;;;;;;;3.40;3.10;;;19.00;89.80;;;;;;4962197;28;20411;-67
2023/09/26 03:01:22;;;;;;;3.30;3.00;;;19.00;89.80;;;;;;4946324;28;20521;-67
2023/09/26 03:03:48;;;;;;;2.90;2.70;;;19.00;89.90;;;;;;4962376;28;20499;-68
2023/09/26 03:06:16;;;;;;;4.60;2.77;;;19.00;89.90;;;;;;4961964;28;20470;-67
2023/09/26 03:08:42;;;;;;;2.93;2.70;;;19.00;89.80;;;;;;4962115;28;20461;-67
2023/09/26 03:11:08;;;;;;;3.00;2.80;;;19.00;89.90;;;;;;4961856;28;21059;-67
2023/09/26 03:13:37;;;;;;;3.23;3.03;;;19.00;89.90;;;;;;4963052;28;20663;-68
2023/09/26 03:16:08;;;;;;;4.03;3.20;;;18.90;89.70;;;;;;4945886;28;21053;-67
2023/09/26 03:18:35;;;;;;;3.03;2.83;;;18.90;89.80;;;;;;4950116;28;20517;-67
2023/09/26 03:21:05;;;;;;;3.53;3.23;;;18.90;89.70;;;;;;4926738;29;20424;-68
2023/09/26 03:23:33;;;;;;;3.27;2.97;;;19.00;89.70;;;;;;4943787;28;20443;-68
2023/09/26 03:25:59;;;;;;;3.67;3.13;;;18.90;89.70;;;;;;4958109;28;20497;-68
2023/09/26 03:28:25;;;;;;;3.03;2.83;;;18.90;89.70;;;;;;4937797;29;20459;-67
2023/09/26 03:30:52;;;;;;;3.27;2.97;;;19.00;89.70;;;;;;4903886;29;20501;-67
2023/09/26 03:33:19;;;;;;;2.97;2.77;;;18.90;89.50;;;;;;4904007;29;20445;-67
2023/09/26 03:35:52;;;;;;;3.40;3.10;;;18.90;89.60;;;;;;4905357;29;20424;-67
2023/09/26 03:38:21;;;;;;;3.40;3.13;;;18.80;89.50;;;;;;4904020;29;20426;-67
2023/09/26 03:41:02;;;;;;;3.50;3.20;;;18.80;89.50;;;;;;4905434;29;20932;-68
2023/09/26 03:43:31;;;;;;;3.40;3.10;;;18.80;89.60;;;;;;4903813;29;20449;-67
2023/09/26 03:46:05;;;;;;;3.80;3.50;;;18.80;89.60;;;;;;4932068;29;20530;-68
2023/09/26 03:48:32;;;;;;;3.87;3.13;;;18.80;89.60;;;;;;4943280;29;21073;-67
2023/09/26 03:51:14;;;;;;;3.30;3.00;;;18.50;89.20;;;;;;4943036;29;20826;-67
2023/09/26 03:53:42;;;;;;;3.37;3.10;;;18.80;89.60;;;;;;4925888;29;21045;-68
2023/09/26 03:56:13;;;;;;;3.20;2.97;;;18.80;89.60;;;;;;4942908;29;20416;-67
2023/09/26 03:58:43;;;;;;;3.70;3.40;;;18.80;89.60;;;;;;4925741;29;20461;-67
2023/09/26 04:01:10;;;;;;;3.40;3.10;;;19.00;89.80;;;;;;4943367;29;20714;-67
2023/09/26 04:03:37;;;;;;;3.17;2.97;;;18.80;89.60;;;;;;4926374;29;20473;-67
2023/09/26 04:06:03;;;;;;;3.10;2.90;;;18.80;89.60;;;;;;4942340;29;20423;-67
2023/09/26 04:08:32;;;;;;;3.10;2.90;;;18.90;89.70;;;;;;4942388;29;20466;-68
2023/09/26 04:11:02;;;;;;;3.60;3.30;;;18.70;89.40;;;;;;4911012;29;20486;-67
2023/09/26 04:13:28;;;;;;;4.33;3.20;;;18.70;89.50;;;;;;4924148;29;20860;-67
2023/09/26 04:15:57;;;;;;;3.43;3.23;;;18.70;89.60;;;;;;4892589;29;20428;-68
2023/09/26 04:18:23;;;;;;;3.53;3.33;;;18.70;89.50;;;;;;4926229;29;20450;-68
2023/09/26 04:20:54;;;;;;;4.53;3.10;;;18.70;89.60;;;;;;4928619;29;20429;-67
2023/09/26 04:23:22;;;;;;;3.50;2.97;;;18.60;89.50;;;;;;4911470;29;20605;-68
2023/09/26 04:25:48;;;;;;;3.43;3.13;;;18.70;89.40;;;;;;4927364;29;20519;-67
2023/09/26 04:28:18;;;;;;;3.23;2.93;;;18.60;89.30;;;;;;4920302;29;20423;-67
2023/09/26 04:30:50;;;;;;;3.30;3.00;;;18.60;89.30;;;;;;4930200;29;20482;-68
2023/09/26 04:33:23;;;;;;;3.50;3.20;;;18.60;89.30;;;;;;4930412;29;20438;-67
2023/09/26 04:35:56;;;;;;;4.07;3.77;;;18.70;89.40;;;;;;4946938;29;20420;-67
2023/09/26 04:38:25;;;;;;;5.40;3.23;;;18.60;89.30;;;;;;4945127;29;20838;-67
2023/09/26 04:40:51;;;;;;;2.90;2.70;;;18.60;89.30;;;;;;4929547;29;20419;-67
2023/09/26 04:43:17;;;;;;;3.57;3.27;;;18.60;89.20;;;;;;4929001;29;20486;-68
2023/09/26 04:45:47;;;;;;;3.50;3.30;;;18.60;89.20;;;;;;4929647;29;20676;-68
2023/09/26 04:48:14;;;;;;;4.20;3.40;;;18.60;89.20;;;;;;4901578;28;20458;-67
2023/09/26 04:50:45;;;;;;;10.50;4.03;;;18.60;89.30;;;;;;4946532;28;20473;-67
2023/09/26 04:53:13;;;;;;;3.70;3.40;;;18.50;89.20;;;;;;4913656;29;20867;-67
2023/09/26 04:55:39;;;;;;;3.87;3.57;;;18.60;89.30;;;;;;4929248;28;20427;-67
2023/09/26 04:58:06;;;;;;;3.83;3.53;;;18.50;89.20;;;;;;4929132;28;20828;-68
2023/09/26 05:00:34;;;;;;;4.33;3.50;;;18.50;89.20;;;;;;4929075;28;20447;-68
2023/09/26 05:03:03;;;;;;;4.00;3.70;;;18.50;89.20;;;;;;4946259;28;20439;-67
2023/09/26 05:05:34;;;;;;;4.47;3.70;;;18.50;89.50;;;;;;4928730;28;20467;-67
2023/09/26 05:08:00;;;;;;;4.03;3.73;;;18.40;89.20;;;;;;4928712;28;20521;-67
2023/09/26 05:10:28;;;;;;;4.10;3.80;;;18.50;89.20;;;;;;4946112;28;20419;-67
2023/09/26 05:12:56;;;;;;;3.80;3.50;;;18.50;89.20;;;;;;4946194;28;20450;-67
2023/09/26 05:15:22;;;;;;;4.23;3.80;;;18.50;89.20;;;;;;4936934;28;20876;-68
2023/09/26 05:17:51;;;;;;;3.73;3.27;;;18.50;89.30;;;;;;4909942;29;20928;-67
2023/09/26 05:20:18;;;;;;;3.60;3.30;;;18.50;89.30;;;;;;4926512;29;20423;-67
2023/09/26 05:22:48;;;;;;;3.93;3.63;;;18.40;89.20;;;;;;4925510;29;20503;-67
2023/09/26 05:25:14;;;;;;;3.83;3.53;;;18.40;89.30;;;;;;4924946;23;20570;-68
2023/09/26 05:27:43;;;;;;;4.90;3.57;;;18.40;89.30;;;;;;4946349;28;20445;-68
2023/09/26 05:30:15;;;;;;;3.73;3.43;;;18.40;89.20;;;;;;4946459;28;20449;-67
2023/09/26 05:32:43;;;;;;;3.83;3.20;;;18.40;89.10;;;;;;4962995;28;20478;-68
2023/09/26 05:35:11;;;;;;;3.70;3.40;;;18.50;89.40;;;;;;4954462;28;20432;-67
2023/09/26 05:37:38;;;;;;;3.70;3.33;;;18.40;89.10;;;;;;4928007;29;20488;-68
2023/09/26 05:40:11;;;;;;;3.90;3.60;;;18.40;89.00;;;;;;4927634;29;20474;-68
2023/09/26 05:42:38;;;;;;;5.80;3.73;;;18.40;89.00;;;;;;4926925;29;20455;-68
2023/09/26 05:45:07;;;;;;;3.73;3.43;;;18.40;89.10;;;;;;4956253;28;21049;-68
2023/09/26 05:47:34;;;;;;;3.50;3.20;;;18.40;89.10;;;;;;4946520;28;20485;-68
2023/09/26 05:50:06;;;;;;;4.13;3.83;;;18.40;89.10;;;;;;4904156;28;21280;-68
2023/09/26 05:52:32;;;;;;;3.43;3.13;;;18.30;89.10;;;;;;4946299;28;20606;-68
2023/09/26 05:55:05;;;;;;;3.73;3.43;;;18.30;89.10;;;;;;4950358;28;20450;-68
2023/09/26 05:57:31;;;;;;;3.60;3.30;;;18.40;89.10;;;;;;4946898;28;20453;-68
2023/09/26 05:59:57;;;;;;;3.17;2.97;;;18.40;89.10;;;;;;4930958;28;20495;-68
2023/09/26 06:02:24;;;;;;;3.67;3.37;;;18.30;89.10;;;;;;4960133;28;20549;-68
2023/09/26 06:04:55;;;;;;;3.80;3.50;;;18.30;89.10;;;;;;4935441;29;20505;-68
2023/09/26 06:07:27;;;;;;;3.97;3.57;;;18.30;89.20;;;;;;4946169;29;20431;-67
2023/09/26 06:09:53;;;;;;;4.03;3.70;;;18.30;89.30;;;;;;4952423;28;20456;-68
2023/09/26 06:12:19;;;;;;;4.03;3.50;;;18.30;89.30;;;;;;4926983;29;20476;-68
2023/09/26 06:14:47;;;;;;;3.63;3.33;;;18.30;89.40;;;;;;4926934;29;20451;-68
2023/09/26 06:17:15;;;;;;;3.53;3.33;;;18.30;89.40;;;;;;4924386;29;20451;-68
2023/09/26 06:19:46;;;;;;;4.60;4.20;;;18.20;89.40;;;;;;4927736;29;20477;-68
2023/09/26 06:22:20;;;;;;;4.17;3.83;;;18.30;89.60;;;;;;4927073;29;20501;-68
2023/09/26 06:24:49;;;;;;;4.43;4.03;;;18.30;89.60;;;;;;4943973;29;20474;-67
2023/09/26 06:27:15;;;;;;;3.80;3.50;;;18.30;89.70;;;;;;4926774;29;20431;-68
2023/09/26 06:29:42;;;;;;;3.70;3.50;;;18.30;89.70;;;;;;4933959;29;20460;-68
2023/09/26 06:32:10;;;;;;;3.97;3.67;;;18.20;89.70;;;;;;4923886;29;20569;-68
2023/09/26 06:34:39;;;;;;;3.67;3.37;;;18.20;89.80;;;;;;4911494;29;20942;-67
2023/09/26 06:37:06;;;;;;;5.73;3.73;;;18.20;89.80;;;;;;4926227;29;20938;-67
2023/09/26 06:39:32;;;;;;;3.90;3.40;;;18.20;89.80;;;;;;4929151;28;20434;-68
2023/09/26 06:42:02;;;;;;;4.23;3.77;;;18.20;89.80;;;;;;4938608;28;20443;-68
2023/09/26 06:44:31;;;;;;;4.10;3.80;;;18.20;90.00;;;;;;4924578;29;20501;-67
2023/09/26 06:46:58;;;;;;;3.97;3.60;;;18.20;90.00;;;;;;4937399;28;20794;-68
2023/09/26 06:49:25;;;;;;;4.03;3.73;;;18.20;90.00;;;;;;4953148;28;20810;-68
2023/09/26 06:51:51;;;;;;;3.90;3.50;;;18.20;90.10;;;;;;4942176;29;20470;-68
2023/09/26 06:54:18;;;;;;;4.40;4.10;;;18.20;90.10;;;;;;4943439;29;20475;-68
2023/09/26 06:56:47;;;;;;;3.40;3.20;;;18.20;90.10;;;;;;4943872;29;20522;-67
2023/09/26 06:59:12;;;;;;;3.63;3.33;;;18.20;90.10;;;;;;4942282;29;21206;-68
2023/09/26 07:01:41;;;;;;;3.83;3.53;;;18.20;90.00;;;;;;4926513;29;20430;-68
2023/09/26 07:04:14;;;;;;;4.07;3.67;;;18.20;90.10;;;;;;4943211;29;20538;-67
2023/09/26 07:06:41;;;;;;;3.67;3.37;;;18.20;90.10;;;;;;4925695;29;20646;-68
2023/09/26 07:09:08;;;;;;;3.77;3.47;;;18.20;90.10;;;;;;4909558;28;20454;-68
2023/09/26 07:11:36;;;;;;;4.30;3.90;;;18.20;90.10;;;;;;4925755;29;20486;-67
2023/09/26 07:14:05;;;;;;;3.87;3.57;;;18.20;90.20;;;;;;4926197;29;20466;-68
2023/09/26 07:16:34;;;;;;;3.70;3.33;;;18.20;90.10;;;;;;4925913;29;20452;-68
2023/09/26 07:19:01;;;;;;;3.37;3.07;;;18.10;90.10;;;;;;4925888;29;20902;-68
2023/09/26 07:21:29;;;;;;;4.93;3.80;;;18.10;90.10;;;;;;4934162;29;20450;-68
2023/09/26 07:23:56;;;;;;;4.20;3.80;;;18.20;90.10;;;;;;4940303;28;20837;-67
2023/09/26 07:26:22;;;;;;;3.70;3.40;;;18.10;90.20;;;;;;4954426;28;20972;-67
2023/09/26 07:28:51;;;;;;;3.67;3.37;;;18.20;90.20;;;;;;4939525;29;20446;-68
2023/09/26 07:31:19;;;;;;;4.03;3.63;;;18.20;90.20;;;;;;4933837;28;21086;-68
2023/09/26 07:33:50;;;;;;;3.90;3.60;;;18.20;90.20;;;;;;4942521;29;20447;-67
2023/09/26 07:36:16;;;;;;;4.10;3.20;;;18.10;90.20;;;;;;4943338;29;21001;-68
2023/09/26 07:38:45;;;;;;;4.33;3.70;;;18.10;90.20;;;;;;4926157;29;21191;-68
2023/09/26 07:41:15;;;;;;;3.93;3.60;;;18.10;90.20;;;;;;4926935;29;20465;-69
2023/09/26 07:43:43;;;;;;;4.53;3.80;;;18.20;90.60;;;;;;4943933;29;20520;-69
2023/09/26 07:46:10;;;;;;;4.23;3.87;;;18.10;90.30;;;;;;4942396;29;20464;-69
2023/09/26 07:48:38;;;;;;;3.70;3.40;;;18.10;90.30;;;;;;4941848;29;20883;-69
2023/09/26 07:51:09;;;;;;;3.70;3.40;;;18.10;90.70;;;;;;4925142;28;20500;-69
2023/09/26 07:53:38;;;;;;;3.77;3.47;;;18.20;90.40;;;;;;4913246;28;21346;-69
2023/09/26 07:56:09;;;;;;;4.20;3.90;;;18.10;90.40;;;;;;4944897;28;20418;-69
2023/09/26 07:58:35;;;;;;;3.73;3.43;;;18.10;90.30;;;;;;4912799;28;21067;-69
2023/09/26 08:01:06;;;;;;;3.53;3.33;;;18.10;90.40;;;;;;4961455;28;20456;-69
2023/09/26 08:03:37;;;;;;;3.80;3.50;;;18.10;90.30;;;;;;4945460;28;20459;-69
2023/09/26 08:06:06;;;;;;;3.97;3.67;;;18.10;90.40;;;;;;4961858;28;20525;-69
2023/09/26 08:08:36;;;;;;;3.77;3.47;;;18.10;90.40;;;;;;4962217;28;20415;-69
2023/09/26 08:11:10;;;;;;;3.80;3.43;;;18.10;90.40;;;;;;4961462;28;20472;-69
2023/09/26 08:13:37;;;;;;;3.97;3.47;;;18.20;90.50;;;;;;4945032;28;20470;-69
2023/09/26 08:16:03;;;;;;;5.53;3.70;;;18.20;90.40;;;;;;4944713;28;20476;-69
2023/09/26 08:18:29;;;;;;;3.60;3.30;;;18.10;90.40;;;;;;4944813;28;20426;-69
2023/09/26 08:20:57;;;;;;;3.67;3.40;;;18.20;90.50;;;;;;4960319;28;20449;-69
2023/09/26 08:23:28;;;;;;;3.50;3.23;;;18.20;90.50;;;;;;4960214;28;20881;-69
2023/09/26 08:25:56;;;;;;;3.77;3.50;;;18.20;90.50;;;;;;4928571;28;20571;-69
2023/09/26 08:28:22;;;;;;;4.03;3.73;;;18.20;90.50;;;;;;4961165;28;20423;-69
2023/09/26 08:30:56;;;;;;;4.33;3.93;;;18.20;90.50;;;;;;4945563;28;21003;-69
2023/09/26 08:33:28;;;;;;;4.10;3.80;;;18.20;90.50;;;;;;4962376;28;20449;-69
2023/09/26 08:35:56;;;;;;;3.50;3.30;;;18.20;90.50;;;;;;4929017;28;20426;-69
2023/09/26 08:38:22;;;;;;;3.80;3.50;;;18.20;90.50;;;;;;4967587;23;20547;-71
2023/09/26 08:40:51;;;;;;;3.83;3.53;;;18.30;90.50;;;;;;4964768;28;20591;-71
2023/09/26 08:43:26;;;;;;;3.77;3.47;;;18.20;90.50;;;;;;4950882;28;20446;-71
2023/09/26 08:45:56;;;;;;;3.47;3.17;;;18.20;90.50;;;;;;4971100;28;20436;-71
2023/09/26 08:48:24;;;;;;;3.80;3.57;;;18.30;90.50;;;;;;4947609;28;20957;-71
2023/09/26 08:50:53;;;;;;;4.17;3.47;;;18.30;90.60;;;;;;4970046;28;20872;-71
2023/09/26 08:53:19;;;;;;;4.00;3.70;;;18.30;90.60;;;;;;4976387;28;20456;-71
2023/09/26 08:55:45;;;;;;;4.00;3.70;;;18.30;90.60;;;;;;4954401;28;20523;-71
2023/09/26 08:58:16;;;;;;;3.67;3.37;;;18.30;90.50;;;;;;4967575;28;20454;-71
2023/09/26 09:00:43;;;;;;;3.70;3.40;;;18.30;90.60;;;;;;4968609;28;20436;-71
2023/09/26 09:03:10;;;;;;;4.00;3.70;;;18.30;90.60;;;;;;4975181;28;20503;-71
2023/09/26 09:05:36;;;;;;;5.03;4.63;;;18.40;90.70;;;;;;4982251;28;21329;-72
2023/09/26 09:08:04;;;;;;;3.87;3.60;;;18.40;91.00;;;;;;4980474;28;20593;-71
2023/09/26 09:10:30;;;;;;;3.80;3.50;;;18.40;90.70;;;;;;4947077;28;20474;-71
2023/09/26 09:13:04;;;;;;;3.53;3.30;;;18.40;90.70;;;;;;4970746;28;20465;-71
2023/09/26 09:15:30;;;;;;;4.07;3.50;;;18.40;90.80;;;;;;4978400;28;20441;-71
2023/09/26 09:17:59;;;;;;;4.10;3.70;;;18.40;90.80;;;;;;4975590;28;20424;-71
2023/09/26 09:20:35;;;;;;;4.13;3.83;;;18.40;90.70;;;;;;4964553;28;20560;-71
2023/09/26 09:23:06;;;;;;;3.93;3.60;;;18.40;90.70;;;;;;4975748;28;20440;-71
2023/09/26 09:25:38;;;;;;;3.40;3.10;;;18.50;90.70;;;;;;4962887;28;20796;-71
2023/09/26 09:28:07;;;;;;;4.57;4.20;;;18.50;90.70;;;;;;4970843;28;20517;-71
2023/09/26 09:30:38;;;;;;;3.80;3.50;;;18.50;90.70;;;;;;4957637;28;20465;-71
2023/09/26 09:33:07;;;;;;;5.33;3.70;;;18.50;90.70;;;;;;4962345;28;20600;-71
2023/09/26 09:35:39;;;;;;;4.00;3.67;;;18.50;90.80;;;;;;4963946;28;20501;-70
2023/09/26 09:38:08;;;;;;;3.93;3.63;;;18.60;90.90;;;;;;4946753;28;20533;-71
2023/09/26 09:40:39;;;;;;;3.80;3.50;;;18.60;90.90;;;;;;4954668;28;20887;-71
2023/09/26 09:43:08;;;;;;;4.40;4.10;;;18.60;90.80;;;;;;4974811;28;20468;-71
2023/09/26 09:45:34;;;;;;;4.33;4.03;;;18.60;90.80;;;;;;4963604;28;20427;-71
2023/09/26 09:48:06;;;;;;;3.80;3.50;;;18.60;90.80;;;;;;4962630;28;20458;-71
2023/09/26 09:50:39;;;;;;;3.80;3.50;;;18.60;90.80;;;;;;4988273;28;20453;-72
2023/09/26 09:53:05;;;;;;;4.30;3.90;;;18.70;90.80;;;;;;4962487;28;20478;-70
2023/09/26 09:55:39;;;;;;;4.50;4.10;;;18.70;90.90;;;;;;4946194;28;20863;-71
2023/09/26 09:58:11;;;;;;;3.83;3.53;;;18.80;90.90;;;;;;4970566;28;20599;-71
2023/09/26 10:00:42;;;;;;;4.00;3.60;;;18.70;90.80;;;;;;4961703;28;20541;-72
2023/09/26 10:03:11;;;;;;;4.70;4.30;;;18.80;90.90;;;;;;4969384;28;20541;-71
2023/09/26 10:05:40;;;;;;;4.60;4.20;;;18.80;91.00;;;;;;4962996;28;20512;-71
2023/09/26 10:08:13;;;;;;;4.23;3.83;;;18.80;91.00;;;;;;4977298;28;21027;-71
2023/09/26 10:10:41;;;;;;;4.23;3.83;;;18.80;91.00;;;;;;4960455;28;20421;-71
2023/09/26 10:13:09;;;;;;;4.17;3.87;;;18.90;91.00;;;;;;4981738;28;20463;-71
2023/09/26 10:16:17;;;;;;;4.10;3.80;;;18.90;91.00;;;;;;4954534;28;20458;-71
2023/09/26 10:18:50;;;;;;;3.70;3.40;;;19.00;91.10;;;;;;4987369;28;20559;-71
2023/09/26 10:21:19;;;;;;;3.80;3.50;;;19.10;91.10;;;;;;4978910;28;20440;-71
2023/09/26 10:24:09;;;;;;;4.03;3.60;;;19.00;91.10;;;;;;4945788;28;20454;-71
2023/09/26 10:26:44;;;;;;;3.80;3.50;;;19.00;91.10;;;;;;4959545;28;20488;-71
2023/09/26 10:29:24;;;;;;;4.03;3.73;;;19.10;91.20;;;;;;4965181;28;20456;-71
2023/09/26 10:31:58;;;;;;;3.87;3.57;;;19.10;91.10;;;;;;4961315;28;20670;-71
2023/09/26 10:34:29;;;;;;;3.73;3.33;;;19.10;91.50;;;;;;4985476;28;20528;-71
2023/09/26 10:36:56;;;;;;;3.70;3.40;;;19.10;91.20;;;;;;4976346;28;20454;-71
2023/09/26 10:39:39;;;;;;;3.77;3.47;;;19.20;91.30;;;;;;4973199;28;20443;-71
2023/09/26 10:42:19;;;;;;;3.80;3.50;;;19.20;91.20;;;;;;4960022;28;20434;-71
2023/09/26 10:44:51;;;;;;;5.03;3.67;;;19.20;91.10;;;;;;4978975;28;21242;-71
2023/09/26 10:47:19;;;;;;;3.70;3.47;;;19.20;91.20;;;;;;4967488;28;20920;-71
2023/09/26 10:49:45;;;;;;;3.60;3.30;;;19.30;91.20;;;;;;4973746;28;20457;-71
2023/09/26 10:52:12;;;;;;;4.10;3.80;;;19.30;91.20;;;;;;4983019;28;20559;-71
2023/09/26 10:54:42;;;;;;;4.13;3.83;;;19.40;91.70;;;;;;4979784;28;20740;-71
2023/09/26 10:57:16;;;;;;;4.60;3.87;;;19.40;91.30;;;;;;4971807;28;20465;-71
2023/09/26 10:59:45;;;;;;;4.30;4.00;;;19.40;91.30;;;;;;4970631;28;20467;-71
2023/09/26 11:02:15;;;;;;;3.83;3.53;;;19.40;91.20;;;;;;4971567;28;21048;-71
2023/09/26 11:04:42;;;;;;;3.43;3.23;;;19.50;91.30;;;;;;4983356;28;20436;-71
2023/09/26 11:07:14;;;;;;;3.90;3.50;;;19.50;91.20;;;;;;4984431;28;20288;-71
2023/09/26 11:09:41;;;;;;;3.77;3.30;;;19.50;91.20;;;;;;4978893;28;20492;-71
2023/09/26 11:12:11;;;;;;;3.30;3.03;;;19.50;91.30;;;;;;4962182;28;20563;-71
2023/09/26 11:14:37;;;;;;;3.40;3.20;;;19.50;91.30;;;;;;4972697;28;20428;-72
2023/09/26 11:17:04;;;;;;;4.53;3.87;;;19.60;91.30;;;;;;4995707;28;20444;-71
2023/09/26 11:19:34;;;;;;;4.60;4.03;;;19.60;91.20;;;;;;4953964;28;20995;-71
2023/09/26 11:22:03;;;;;;;3.97;3.67;;;19.60;91.20;;;;;;4963091;28;20441;-71
2023/09/26 11:27:22;;;;;;;3.47;3.27;;;19.70;91.20;;;;;;4929397;28;20500;-72
2023/09/26 11:29:48;;;;;;;3.90;3.60;;;19.70;91.30;;;;;;4947120;28;20885;-72
2023/09/26 11:32:17;;;;;;;3.77;3.47;;;19.80;91.30;;;;;;4979436;28;21152;-72
2023/09/26 11:34:44;;;;;;;3.83;3.53;;;19.80;91.20;;;;;;4958901;28;20454;-72
2023/09/26 11:37:14;;;;;;;4.07;3.67;;;19.80;91.10;;;;;;4990857;28;21274;-72
2023/09/26 11:39:49;;;;;;;3.47;3.17;;;19.80;91.10;;;;;;4973831;28;20424;-72
2023/09/26 11:42:17;;;;;;;3.67;3.40;;;19.90;91.20;;;;;;4983116;28;20512;-72
2023/09/26 11:44:53;;;;;;;3.73;3.43;;;19.90;91.20;;;;;;4975975;28;20529;-72
2023/09/26 11:47:21;;;;;;;4.10;3.70;;;19.90;91.10;;;;;;4960245;28;20937;-72
2023/09/26 11:49:51;;;;;;;3.53;3.23;;;20.00;91.00;;;;;;4984539;28;20433;-72
2023/09/26 11:52:18;;;;;;;4.37;3.40;;;20.00;91.10;;;;;;4982654;28;21320;-72
2023/09/26 11:54:46;;;;;;;5.43;3.50;;;20.20;91.10;;;;;;4954812;28;20425;-72
2023/09/26 11:57:12;;;;;;;4.30;4.00;;;20.00;91.00;;;;;;4984849;28;20435;-72
2023/09/26 11:59:41;;;;;;;3.57;3.27;;;20.00;91.00;;;;;;4987803;28;20422;-72
2023/09/26 12:02:12;;;;;;;3.60;3.30;;;20.10;91.00;;;;;;4961730;28;20469;-72
2023/09/26 12:04:41;;;;;;;3.60;3.30;;;20.10;90.90;;;;;;4986174;28;20534;-72
2023/09/26 12:07:08;;;;;;;3.87;3.57;;;20.20;91.00;;;;;;4980068;28;20427;-72
2023/09/26 12:09:36;;;;;;;3.50;3.20;;;20.20;90.90;;;;;;4945776;28;20455;-72
2023/09/26 12:12:05;;;;;;;3.50;3.27;;;20.20;90.90;;;;;;4976927;28;21190;-72
2023/09/26 12:14:33;;;;;;;3.90;3.50;;;20.20;90.90;;;;;;4978989;28;20450;-72
2023/09/26 12:17:04;;;;;;;4.13;3.70;;;20.30;91.00;;;;;;4983699;28;21030;-72
2023/09/26 12:19:36;;;;;;;3.40;3.20;;;20.20;90.90;;;;;;4982728;28;20470;-72
2023/09/26 12:22:04;;;;;;;3.43;3.23;;;20.30;91.00;;;;;;4959586;28;20490;-72
2023/09/26 12:24:30;;;;;;;3.17;2.97;;;20.40;91.00;;;;;;4970594;28;20992;-72
2023/09/26 12:26:56;;;;;;;3.60;3.30;;;20.40;91.10;;;;;;4976006;28;20543;-72
2023/09/26 12:29:22;;;;;;;3.10;2.80;;;20.40;91.10;;;;;;4990157;28;20428;-72
2023/09/26 12:31:48;;;;;;;6.50;3.43;;;20.40;91.10;;;;;;4986147;28;20548;-72
2023/09/26 12:34:14;;;;;;;3.43;3.13;;;20.40;91.10;;;;;;4970772;28;20951;-72
2023/09/26 12:36:41;;;;;;;5.67;3.50;;;20.50;91.20;;;;;;4974424;28;20781;-72
2023/09/26 12:39:09;;;;;;;3.47;3.17;;;20.50;91.20;;;;;;4964582;28;20432;-72
2023/09/26 12:41:39;;;;;;;3.33;3.03;;;20.50;91.20;;;;;;4958067;28;20449;-73
2023/09/26 12:44:05;;;;;;;3.50;3.10;;;20.50;91.10;;;;;;4967301;28;20462;-72
2023/09/26 12:46:31;;;;;;;4.30;3.60;;;20.60;91.20;;;;;;4977088;28;20467;-72
2023/09/26 12:48:57;;;;;;;3.37;3.07;;;20.60;91.20;;;;;;4989918;28;20497;-72
2023/09/26 12:51:23;;;;;;;3.13;2.93;;;20.70;91.20;;;;;;4968275;28;20576;-72
2023/09/26 12:53:52;;;;;;;5.40;3.47;;;20.70;91.30;;;;;;4965899;28;20220;-72
2023/09/26 12:56:17;;;;;;;4.17;3.77;;;20.70;91.30;;;;;;4974289;28;20420;-72
2023/09/26 12:58:44;;;;;;;3.90;3.43;;;20.70;91.30;;;;;;4994156;28;20998;-72